createdAt,value
2023-01-29T00:01:52.640Z,5.00
2023-01-29T00:04:19.340Z,5.30
2023-01-29T00:06:46.132Z,4.85
2023-01-29T00:09:13.780Z,5.13
2023-01-29T00:11:41.318Z,5.13
2023-01-29T00:14:08.138Z,5.60
2023-01-29T00:16:34.689Z,5.40
2023-01-29T00:19:02.520Z,5.20
2023-01-29T00:21:31.139Z,5.90
2023-01-29T00:23:58.248Z,5.28
2023-01-29T00:26:25.500Z,5.55
2023-01-29T00:28:52.433Z,6.35
2023-01-29T00:31:22.111Z,5.75
2023-01-29T00:33:49.761Z,6.07
2023-01-29T00:36:18.320Z,6.18
2023-01-29T00:38:54.928Z,5.95
2023-01-29T00:41:40.975Z,6.60
2023-01-29T00:44:26.557Z,6.05
2023-01-29T00:46:53.861Z,6.15
2023-01-29T00:49:20.439Z,7.05
2023-01-29T00:52:09.833Z,7.07
2023-01-29T00:54:36.876Z,7.07
2023-01-29T00:57:04.150Z,7.45
2023-01-29T00:59:32.143Z,7.15
2023-01-29T01:02:17.674Z,7.60
2023-01-29T01:04:44.372Z,7.70
2023-01-29T01:09:55.396Z,7.28
2023-01-29T01:12:22.125Z,7.13
2023-01-29T01:14:49.130Z,7.25
2023-01-29T01:17:16.116Z,6.90
2023-01-29T01:19:42.723Z,8.02
2023-01-29T01:22:09.782Z,8.13
2023-01-29T01:24:36.788Z,8.95
2023-01-29T01:27:03.351Z,8.30
2023-01-29T01:29:30.076Z,8.07
2023-01-29T01:31:56.729Z,8.43
2023-01-29T01:34:23.676Z,8.90
2023-01-29T01:36:50.233Z,7.65
2023-01-29T01:39:16.884Z,8.38
2023-01-29T01:41:43.524Z,9.05
2023-01-29T01:44:56.480Z,9.23
2023-01-29T01:47:45.857Z,8.93
2023-01-29T01:50:19.131Z,8.65
2023-01-29T01:52:51.969Z,9.30
2023-01-29T01:55:22.025Z,8.50
2023-01-29T01:57:53.831Z,8.60
2023-01-29T02:00:24.944Z,8.88
2023-01-29T02:03:10.178Z,8.43
2023-01-29T02:05:57.770Z,9.15
2023-01-29T02:09:25.267Z,8.70
2023-01-29T02:11:51.932Z,8.30
2023-01-29T02:14:18.950Z,9.27
2023-01-29T02:16:45.657Z,9.40
2023-01-29T02:19:39.835Z,9.07
2023-01-29T02:22:30.818Z,8.98
2023-01-29T02:28:16.211Z,8.60
2023-01-29T02:31:11.583Z,9.05
2023-01-29T02:33:51.561Z,8.57
2023-01-29T02:36:37.107Z,10.15
2023-01-29T02:39:28.682Z,9.25
2023-01-29T02:42:17.110Z,9.30
2023-01-29T02:44:54.321Z,9.32
2023-01-29T02:48:00.718Z,10.60
2023-01-29T02:50:47.756Z,8.95
2023-01-29T02:53:21.869Z,9.00
2023-01-29T02:56:07.733Z,9.25
2023-01-29T02:58:54.013Z,9.13
2023-01-29T03:01:30.492Z,10.38
2023-01-29T03:04:01.638Z,9.45
2023-01-29T03:06:34.715Z,9.40
2023-01-29T03:09:06.955Z,9.10
2023-01-29T03:11:42.946Z,9.63
2023-01-29T03:14:16.981Z,8.60
2023-01-29T03:16:52.227Z,9.50
2023-01-29T03:19:24.157Z,8.88
2023-01-29T03:21:59.692Z,9.45
2023-01-29T03:24:54.144Z,9.35
2023-01-29T03:27:43.608Z,8.15
2023-01-29T03:30:31.792Z,9.90
2023-01-29T03:33:02.935Z,9.07
2023-01-29T03:35:39.405Z,11.35
2023-01-29T03:38:12.498Z,8.93
2023-01-29T03:40:46.203Z,9.80
2023-01-29T03:43:52.256Z,8.80
2023-01-29T03:46:29.899Z,8.48
2023-01-29T03:49:01.099Z,9.82
2023-01-29T03:52:23.515Z,9.30
2023-01-29T03:54:57.965Z,9.00
2023-01-29T03:57:35.068Z,9.75
2023-01-29T04:00:29.182Z,9.32
2023-01-29T04:03:21.770Z,10.32
2023-01-29T04:05:53.232Z,8.77
2023-01-29T04:08:27.531Z,10.15
2023-01-29T04:10:59.645Z,10.55
2023-01-29T04:15:58.222Z,10.07
2023-01-29T04:18:25.877Z,10.77
2023-01-29T04:20:52.822Z,9.52
2023-01-29T04:23:24.962Z,10.65
2023-01-29T04:28:56.608Z,10.00
2023-01-29T04:31:28.657Z,11.07
2023-01-29T04:36:56.674Z,10.05
2023-01-29T04:39:31.612Z,11.48
2023-01-29T04:42:36.617Z,10.80
2023-01-29T04:45:21.743Z,11.20
2023-01-29T04:48:14.845Z,11.43
2023-01-29T04:50:52.369Z,9.93
2023-01-29T04:53:29.613Z,11.85
2023-01-29T04:56:05.163Z,12.25
2023-01-29T04:58:45.356Z,11.52
2023-01-29T05:01:16.750Z,10.90
2023-01-29T05:03:47.483Z,10.10
2023-01-29T05:06:16.402Z,10.88
2023-01-29T05:08:44.987Z,11.68
2023-01-29T05:11:11.962Z,11.68
2023-01-29T05:13:42.360Z,11.52
2023-01-29T05:16:20.901Z,13.05
2023-01-29T05:18:48.121Z,11.55
2023-01-29T05:21:14.988Z,11.90
2023-01-29T05:23:53.575Z,12.25
2023-01-29T05:26:40.382Z,11.45
2023-01-29T05:29:07.271Z,11.98
2023-01-29T05:31:34.047Z,11.98
2023-01-29T05:34:00.841Z,12.65
2023-01-29T05:36:27.628Z,11.57
2023-01-29T05:38:54.447Z,12.00
2023-01-29T05:41:21.273Z,11.07
2023-01-29T05:43:48.004Z,12.40
2023-01-29T05:46:14.598Z,11.77
2023-01-29T05:48:41.418Z,11.15
2023-01-29T05:51:08.172Z,12.07
2023-01-29T05:53:34.937Z,11.05
2023-01-29T05:56:02.805Z,11.40
2023-01-29T05:58:33.339Z,11.50
2023-01-29T06:01:15.792Z,11.52
2023-01-29T06:03:42.760Z,12.15
2023-01-29T06:06:09.595Z,11.07
2023-01-29T06:08:36.588Z,11.40
2023-01-29T06:11:03.561Z,11.20
2023-01-29T06:13:30.911Z,11.85
2023-01-29T06:15:57.531Z,12.10
2023-01-29T06:18:24.462Z,12.18
2023-01-29T06:20:51.130Z,12.13
2023-01-29T06:23:17.853Z,13.10
2023-01-29T06:25:44.537Z,12.18
2023-01-29T06:28:11.139Z,12.40
2023-01-29T06:30:37.809Z,11.75
2023-01-29T06:33:04.601Z,11.80
2023-01-29T06:35:31.298Z,12.05
2023-01-29T06:37:57.825Z,12.15
2023-01-29T06:40:24.406Z,12.80
2023-01-29T06:42:51.025Z,12.15
2023-01-29T06:45:17.784Z,12.57
2023-01-29T06:47:44.488Z,10.88
2023-01-29T06:50:11.701Z,13.40
2023-01-29T06:52:38.410Z,12.27
2023-01-29T06:55:05.531Z,11.65
2023-01-29T06:57:32.212Z,12.63
2023-01-29T06:59:59.683Z,12.43
2023-01-29T07:02:26.451Z,12.00
2023-01-29T07:04:53.154Z,12.20
2023-01-29T07:07:20.023Z,13.18
2023-01-29T07:09:47.708Z,11.50
2023-01-29T07:12:14.538Z,12.93
2023-01-29T07:14:41.261Z,12.88
2023-01-29T07:17:07.888Z,12.77
2023-01-29T07:19:34.479Z,13.20
2023-01-29T07:22:03.404Z,12.45
2023-01-29T07:24:30.935Z,12.63
2023-01-29T07:26:57.754Z,11.80
2023-01-29T07:29:24.491Z,12.07
2023-01-29T07:31:51.292Z,11.93
2023-01-29T07:34:18.094Z,12.90
2023-01-29T07:36:44.796Z,12.55
2023-01-29T07:39:11.628Z,12.82
2023-01-29T07:41:38.250Z,13.88
2023-01-29T07:44:05.311Z,12.65
2023-01-29T07:46:32.489Z,13.25
2023-01-29T07:48:59.921Z,14.02
2023-01-29T07:51:26.493Z,12.55
2023-01-29T07:53:53.648Z,11.93
2023-01-29T07:56:20.496Z,12.65
2023-01-29T07:58:47.335Z,13.38
2023-01-29T08:01:14.219Z,13.05
2023-01-29T08:03:41.238Z,13.40
2023-01-29T08:06:08.121Z,12.35
2023-01-29T08:08:35.059Z,12.02
2023-01-29T08:11:03.137Z,12.60
2023-01-29T08:13:30.336Z,11.73
2023-01-29T08:16:02.303Z,12.95
2023-01-29T08:18:29.468Z,13.35
2023-01-29T08:21:01.236Z,13.82
2023-01-29T08:23:28.041Z,13.18
2023-01-29T08:25:54.983Z,12.68
2023-01-29T08:28:22.054Z,12.85
2023-01-29T08:30:48.785Z,13.23
2023-01-29T08:33:17.530Z,14.23
2023-01-29T08:35:50.023Z,12.75
2023-01-29T08:38:17.187Z,12.70
2023-01-29T08:40:44.326Z,12.35
2023-01-29T08:43:12.391Z,11.63
2023-01-29T08:45:44.275Z,11.73
2023-01-29T08:48:11.656Z,11.40
2023-01-29T08:50:38.464Z,13.43
2023-01-29T08:53:09.542Z,12.70
2023-01-29T08:55:38.829Z,13.60
2023-01-29T08:58:06.766Z,13.02
2023-01-29T09:00:35.062Z,11.70
2023-01-29T09:03:01.783Z,12.45
2023-01-29T09:05:28.892Z,13.57
2023-01-29T09:07:58.962Z,12.32
2023-01-29T09:10:25.875Z,12.77
2023-01-29T09:12:52.785Z,12.23
2023-01-29T09:15:19.969Z,11.20
2023-01-29T09:17:47.494Z,12.50
2023-01-29T09:20:14.269Z,12.57
2023-01-29T09:22:41.663Z,11.15
2023-01-29T09:25:09.057Z,12.05
2023-01-29T09:27:35.826Z,11.88
2023-01-29T09:30:02.821Z,12.32
2023-01-29T09:33:04.902Z,12.60
2023-01-29T09:35:18.429Z,13.45
2023-01-29T09:37:49.048Z,11.82
2023-01-29T09:40:37.571Z,15.10
2023-01-29T09:43:14.106Z,12.63
2023-01-29T09:45:52.254Z,11.40
2023-01-29T09:48:22.203Z,11.10
2023-01-29T09:50:54.660Z,12.25
2023-01-29T09:53:43.365Z,12.30
2023-01-29T09:56:38.774Z,11.27
2023-01-29T09:59:09.438Z,11.95
2023-01-29T10:01:57.592Z,11.40
2023-01-29T10:04:52.860Z,11.73
2023-01-29T10:11:55.216Z,11.32
2023-01-29T10:14:39.146Z,10.52
2023-01-29T10:17:24.515Z,9.93
2023-01-29T10:20:18.115Z,11.00
2023-01-29T10:22:47.822Z,10.95
2023-01-29T10:25:19.831Z,9.73
2023-01-29T10:27:54.671Z,8.93
2023-01-29T10:30:27.276Z,9.82
2023-01-29T10:32:55.595Z,10.75
2023-01-29T10:35:44.259Z,10.10
2023-01-29T10:38:29.529Z,9.50
2023-01-29T10:41:13.147Z,9.40
2023-01-29T10:43:53.534Z,10.13
2023-01-29T10:46:38.239Z,10.65
2023-01-29T10:49:17.913Z,9.25
2023-01-29T10:51:56.922Z,9.43
2023-01-29T10:54:42.082Z,8.75
2023-01-29T10:57:11.765Z,9.70
2023-01-29T11:00:15.505Z,10.27
2023-01-29T11:02:48.853Z,9.85
2023-01-29T11:05:30.645Z,9.05
2023-01-29T11:08:08.837Z,8.90
2023-01-29T11:13:06.401Z,8.27
2023-01-29T11:15:35.870Z,8.18
2023-01-29T11:18:15.546Z,9.13
2023-01-29T11:20:44.280Z,9.07
2023-01-29T11:23:27.320Z,8.45
2023-01-29T11:25:55.871Z,8.48
2023-01-29T11:28:42.895Z,8.32
2023-01-29T11:31:22.767Z,9.07
2023-01-29T11:33:52.725Z,8.13
2023-01-29T11:36:33.445Z,8.77
2023-01-29T11:39:20.785Z,8.32
2023-01-29T11:41:59.365Z,8.13
2023-01-29T11:44:33.632Z,8.15
2023-01-29T11:47:15.350Z,8.55
2023-01-29T11:49:56.666Z,8.40
2023-01-29T11:52:35.740Z,8.52
2023-01-29T11:55:07.609Z,8.10
2023-01-29T11:57:41.345Z,8.63
2023-01-29T12:00:22.645Z,8.48
2023-01-29T12:02:58.143Z,8.45
2023-01-29T12:05:27.138Z,8.02
2023-01-29T12:07:56.864Z,7.80
2023-01-29T12:10:38.198Z,7.20
2023-01-29T12:13:07.728Z,7.72
2023-01-29T12:15:34.359Z,7.65
2023-01-29T12:18:33.252Z,8.60
2023-01-29T12:21:13.681Z,7.80
2023-01-29T12:23:58.065Z,8.02
2023-01-29T12:29:15.240Z,8.15
2023-01-29T12:32:03.532Z,8.75
2023-01-29T12:34:44.300Z,8.77
2023-01-29T12:37:46.416Z,8.85
2023-01-29T12:40:21.371Z,6.97
2023-01-29T12:43:08.145Z,8.32
2023-01-29T12:46:08.906Z,8.15
2023-01-29T12:48:47.001Z,8.27
2023-01-29T12:54:00.684Z,6.80
2023-01-29T12:56:34.432Z,7.50
2023-01-29T12:59:10.040Z,8.52
2023-01-29T13:02:04.456Z,7.60
2023-01-29T13:04:44.523Z,8.25
2023-01-29T13:07:21.598Z,8.68
2023-01-29T13:09:53.340Z,8.07
2023-01-29T13:12:22.934Z,8.63
2023-01-29T13:14:56.375Z,8.35
2023-01-29T13:17:53.618Z,8.60
2023-01-29T13:20:29.138Z,8.20
2023-01-29T13:23:02.016Z,8.93
2023-01-29T13:27:56.430Z,8.23
2023-01-29T13:30:35.875Z,8.13
2023-01-29T13:33:16.585Z,8.77
2023-01-29T13:35:47.157Z,8.77
2023-01-29T13:38:29.692Z,9.40
2023-01-29T13:41:05.345Z,8.23
2023-01-29T13:43:44.657Z,8.15
2023-01-29T13:46:21.574Z,8.70
2023-01-29T13:48:51.213Z,8.55
2023-01-29T13:51:22.587Z,9.55
2023-01-29T13:53:54.248Z,9.27
2023-01-29T13:56:36.262Z,8.30
2023-01-29T13:59:05.594Z,8.98
2023-01-29T14:01:50.762Z,10.00
2023-01-29T14:04:25.677Z,9.30
2023-01-29T14:06:58.232Z,10.05
2023-01-29T14:09:31.964Z,9.93
2023-01-29T14:11:59.504Z,10.05
2023-01-29T14:14:48.141Z,9.00
2023-01-29T14:17:17.584Z,9.90
2023-01-29T14:20:16.126Z,9.80
2023-01-29T14:22:44.664Z,10.50
2023-01-29T14:25:21.403Z,10.25
2023-01-29T14:27:50.957Z,11.40
2023-01-29T14:30:19.171Z,10.65
2023-01-29T14:32:50.411Z,10.88
2023-01-29T14:35:25.111Z,10.55
2023-01-29T14:37:56.788Z,11.75
2023-01-29T14:40:26.198Z,10.55
2023-01-29T14:43:03.409Z,11.32
2023-01-29T14:45:33.250Z,11.38
2023-01-29T14:48:12.562Z,12.15
2023-01-29T14:50:42.945Z,11.65
2023-01-29T14:53:45.292Z,11.95
2023-01-29T14:56:26.731Z,12.25
2023-01-29T14:59:22.444Z,10.95
2023-01-29T15:01:58.054Z,11.30
2023-01-29T15:04:32.996Z,11.48
2023-01-29T15:07:23.594Z,12.38
2023-01-29T15:10:22.303Z,12.00
2023-01-29T15:13:14.053Z,11.65
2023-01-29T15:15:47.569Z,10.80
2023-01-29T15:18:26.816Z,12.27
2023-01-29T15:21:08.029Z,12.95
2023-01-29T15:23:34.788Z,12.15
2023-01-29T15:26:20.521Z,11.77
2023-01-29T15:29:03.627Z,12.45
2023-01-29T15:31:32.622Z,12.02
2023-01-29T15:34:03.457Z,11.27
2023-01-29T15:36:31.686Z,11.43
2023-01-29T15:39:10.968Z,12.02
2023-01-29T15:41:37.762Z,11.48
2023-01-29T15:44:04.636Z,11.85
2023-01-29T15:46:45.991Z,11.52
2023-01-29T15:49:45.218Z,10.77
2023-01-29T15:52:35.547Z,11.60
2023-01-29T15:55:07.471Z,10.23
2023-01-29T16:00:05.719Z,11.00
2023-01-29T16:02:41.917Z,11.57
2023-01-29T16:05:21.013Z,9.80
2023-01-29T16:07:49.758Z,10.65
2023-01-29T16:10:22.214Z,11.63
2023-01-29T16:12:51.819Z,11.05
2023-01-29T16:15:33.673Z,11.27
2023-01-29T16:18:02.702Z,11.23
2023-01-29T16:20:41.532Z,10.95
2023-01-29T16:23:16.367Z,10.88
2023-01-29T16:25:43.090Z,11.20
2023-01-29T16:28:11.873Z,11.02
2023-01-29T16:30:40.358Z,10.55
2023-01-29T16:33:14.801Z,10.68
2023-01-29T16:35:41.778Z,11.05
2023-01-29T16:38:25.136Z,10.95
2023-01-29T16:41:13.793Z,11.18
2023-01-29T16:43:49.317Z,10.05
2023-01-29T16:46:26.425Z,9.65
2023-01-29T16:48:53.968Z,11.00
2023-01-29T16:51:30.890Z,10.70
2023-01-29T16:54:00.126Z,9.43
2023-01-29T16:56:33.491Z,10.27
2023-01-29T16:59:13.005Z,11.45
2023-01-29T17:01:39.802Z,10.27
2023-01-29T17:04:13.833Z,10.93
2023-01-29T17:06:44.762Z,9.43
2023-01-29T17:09:26.327Z,10.35
2023-01-29T17:11:56.792Z,10.68
2023-01-29T17:14:25.719Z,9.55
2023-01-29T17:17:16.132Z,9.75
2023-01-29T17:19:43.115Z,8.85
2023-01-29T17:22:14.950Z,9.77
2023-01-29T17:24:46.613Z,8.55
2023-01-29T17:27:20.237Z,9.45
2023-01-29T17:29:47.800Z,8.85
2023-01-29T17:32:18.881Z,9.52
2023-01-29T17:34:51.999Z,9.73
2023-01-29T17:37:23.455Z,9.77
2023-01-29T17:39:52.058Z,9.35
2023-01-29T17:42:21.786Z,9.10
2023-01-29T17:44:49.264Z,9.38
2023-01-29T17:47:16.053Z,9.57
2023-01-29T17:49:47.884Z,8.65
2023-01-29T17:52:15.711Z,8.55
2023-01-29T17:54:43.234Z,9.15
2023-01-29T17:57:18.883Z,8.75
2023-01-29T17:59:45.554Z,9.40
2023-01-29T18:02:28.936Z,9.20
2023-01-29T18:05:08.118Z,9.20
2023-01-29T18:10:05.718Z,8.10
2023-01-29T18:12:32.536Z,8.35
2023-01-29T18:14:59.735Z,8.00
2023-01-29T18:17:26.736Z,7.63
2023-01-29T18:19:53.427Z,9.45
2023-01-29T18:22:20.464Z,12.95
2023-01-29T18:24:48.208Z,8.05
2023-01-29T18:27:17.350Z,9.07
2023-01-29T18:29:44.116Z,10.07
2023-01-29T18:32:15.766Z,10.23
2023-01-29T18:34:42.765Z,9.80
2023-01-29T18:37:13.039Z,8.90
2023-01-29T18:39:40.037Z,8.80
2023-01-29T18:42:06.643Z,9.25
2023-01-29T18:44:33.742Z,9.07
2023-01-29T18:47:00.503Z,7.68
2023-01-29T18:49:30.729Z,7.95
2023-01-29T18:51:57.655Z,9.43
2023-01-29T18:54:24.765Z,7.97
2023-01-29T18:57:09.295Z,8.35
2023-01-29T19:02:27.637Z,9.18
2023-01-29T19:11:41.994Z,7.57
2023-01-29T19:14:29.095Z,7.18
2023-01-29T19:17:09.414Z,9.32
2023-01-29T19:19:36.572Z,8.48
2023-01-29T19:22:05.456Z,8.02
2023-01-29T19:24:42.688Z,8.05
2023-01-29T19:27:12.591Z,8.82
2023-01-29T19:29:44.401Z,9.45
2023-01-29T19:32:22.072Z,8.38
2023-01-29T19:34:51.744Z,8.98
2023-01-29T19:37:18.523Z,8.90
2023-01-29T19:42:26.276Z,10.50
2023-01-29T19:44:53.849Z,9.68
2023-01-29T19:50:10.142Z,8.85
2023-01-29T19:52:52.407Z,8.63
2023-01-29T19:55:21.108Z,7.47
2023-01-29T19:57:59.794Z,8.20
2023-01-29T20:00:40.254Z,7.47
2023-01-29T20:03:07.407Z,6.80
2023-01-29T20:05:38.460Z,6.72
2023-01-29T20:08:05.839Z,7.38
2023-01-29T20:10:37.649Z,7.35
2023-01-29T20:13:09.247Z,6.35
2023-01-29T20:15:36.232Z,7.05
2023-01-29T20:18:09.130Z,7.20
2023-01-29T20:20:45.321Z,7.28
2023-01-29T20:23:25.042Z,6.50
2023-01-29T20:26:03.653Z,5.88
2023-01-29T20:28:36.289Z,6.80
2023-01-29T20:31:05.941Z,6.40
2023-01-29T20:33:37.557Z,6.32
2023-01-29T20:36:07.909Z,6.13
2023-01-29T20:38:40.660Z,6.80
2023-01-29T20:41:27.501Z,6.30
2023-01-29T20:43:57.057Z,6.65
2023-01-29T20:46:24.104Z,5.90
2023-01-29T20:51:42.149Z,6.40
2023-01-29T20:54:09.433Z,5.45
2023-01-29T20:56:39.296Z,6.57
2023-01-29T20:59:13.172Z,6.25
2023-01-29T21:01:44.400Z,6.18
2023-01-29T21:04:11.828Z,6.07
2023-01-29T21:06:38.584Z,6.03
2023-01-29T21:09:05.476Z,6.65
2023-01-29T21:11:33.900Z,6.38
2023-01-29T21:14:08.027Z,5.93
2023-01-29T21:16:37.636Z,5.00
2023-01-29T21:19:17.316Z,6.38
2023-01-29T21:22:05.103Z,6.20
2023-01-29T21:24:37.838Z,6.55
2023-01-29T21:27:09.393Z,5.68
2023-01-29T21:29:39.237Z,6.07
2023-01-29T21:32:08.457Z,6.20
2023-01-29T21:37:17.586Z,6.18
2023-01-29T21:39:44.306Z,6.07
2023-01-29T21:42:29.768Z,6.35
2023-01-29T21:44:59.830Z,6.03
2023-01-29T21:47:27.114Z,4.85
2023-01-29T21:49:54.438Z,4.93
2023-01-29T21:52:24.236Z,5.53
2023-01-29T21:54:51.582Z,5.63
2023-01-29T21:57:21.407Z,6.13
2023-01-29T21:59:53.167Z,6.15
2023-01-29T22:02:21.856Z,5.50
2023-01-29T22:04:53.295Z,5.50
2023-01-29T22:07:20.358Z,6.38
2023-01-29T22:09:47.832Z,6.43
2023-01-29T22:12:16.603Z,5.47
2023-01-29T22:14:44.145Z,5.47
2023-01-29T22:17:11.433Z,5.28
2023-01-29T22:19:39.372Z,5.18
2023-01-29T22:22:08.369Z,6.35
2023-01-29T22:24:43.012Z,5.68
2023-01-29T22:27:13.053Z,6.00
2023-01-29T22:29:40.777Z,5.40
2023-01-29T22:32:08.457Z,6.13
2023-01-29T22:34:35.513Z,5.85
2023-01-29T22:37:02.759Z,5.90
2023-01-29T22:39:29.516Z,4.88
2023-01-29T22:41:56.850Z,5.25
2023-01-29T22:44:23.962Z,5.25
2023-01-29T22:46:52.121Z,4.15
2023-01-29T22:49:27.896Z,6.22
2023-01-29T22:52:12.808Z,5.65
2023-01-29T22:54:42.353Z,5.78
2023-01-29T22:57:14.106Z,5.07
2023-01-29T22:59:44.760Z,4.93
2023-01-29T23:02:12.354Z,4.90
2023-01-29T23:04:40.615Z,5.60
2023-01-29T23:07:07.324Z,4.38
2023-01-29T23:09:34.441Z,4.53
2023-01-29T23:12:04.467Z,4.60
2023-01-29T23:14:31.508Z,5.57
2023-01-29T23:16:58.237Z,4.60
2023-01-29T23:22:11.315Z,5.35
2023-01-29T23:24:38.278Z,5.45
2023-01-29T23:27:14.919Z,5.18
2023-01-29T23:29:46.107Z,4.85
2023-01-29T23:32:17.904Z,5.07
2023-01-29T23:34:44.461Z,5.25
2023-01-29T23:37:10.992Z,5.13
2023-01-29T23:39:37.907Z,5.60
2023-01-29T23:42:04.544Z,5.20
2023-01-29T23:44:33.775Z,4.90
2023-01-29T23:47:00.370Z,5.85
2023-01-29T23:49:27.081Z,6.20
2023-01-29T23:51:54.714Z,6.15
2023-01-29T23:54:21.285Z,6.22
2023-01-29T23:56:48.079Z,5.50
2023-01-29T23:59:15.263Z,5.05
